sensor_id;sensor_type;location;lat;lon;timestamp;pressure;altitude;pressure_sealevel;temperature;humidity
58072;BME280;60383;46.626;18.866;2023-05-20T00:00:30;100777.13;;;15.71;98.48
58072;BME280;60383;46.626;18.866;2023-05-20T00:02:55;100760.53;;;15.71;98.84
58072;BME280;60383;46.626;18.866;2023-05-20T00:05:22;100769.06;;;15.61;98.86
58072;BME280;60383;46.626;18.866;2023-05-20T00:07:47;100772.03;;;15.59;98.79
58072;BME280;60383;46.626;18.866;2023-05-20T00:10:13;100773.56;;;15.62;99.03
58072;BME280;60383;46.626;18.866;2023-05-20T00:12:39;100763.56;;;15.61;98.51
58072;BME280;60383;46.626;18.866;2023-05-20T00:15:04;100755.69;;;15.49;98.89
58072;BME280;60383;46.626;18.866;2023-05-20T00:17:30;100755.25;;;15.38;99.66
58072;BME280;60383;46.626;18.866;2023-05-20T00:19:56;100766.09;;;15.39;99.91
58072;BME280;60383;46.626;18.866;2023-05-20T00:22:22;100764.94;;;15.33;100.00
58072;BME280;60383;46.626;18.866;2023-05-20T00:24:47;100763.31;;;15.39;99.71
58072;BME280;60383;46.626;18.866;2023-05-20T00:27:13;100764.28;;;15.23;99.96
58072;BME280;60383;46.626;18.866;2023-05-20T00:29:38;100761.47;;;15.31;99.67
58072;BME280;60383;46.626;18.866;2023-05-20T00:32:04;100774.88;;;15.43;99.60
58072;BME280;60383;46.626;18.866;2023-05-20T00:34:29;100773.97;;;15.51;99.17
58072;BME280;60383;46.626;18.866;2023-05-20T00:36:55;100776.53;;;15.52;99.09
58072;BME280;60383;46.626;18.866;2023-05-20T00:39:20;100765.50;;;15.52;99.15
58072;BME280;60383;46.626;18.866;2023-05-20T00:41:46;100768.06;;;15.54;99.40
58072;BME280;60383;46.626;18.866;2023-05-20T00:44:11;100766.78;;;15.41;99.99
58072;BME280;60383;46.626;18.866;2023-05-20T00:46:37;100765.81;;;15.26;100.00
58072;BME280;60383;46.626;18.866;2023-05-20T00:49:03;100763.81;;;15.11;100.00
58072;BME280;60383;46.626;18.866;2023-05-20T00:51:29;100763.59;;;15.21;100.00
58072;BME280;60383;46.626;18.866;2023-05-20T00:53:55;100767.72;;;15.25;100.00
58072;BME280;60383;46.626;18.866;2023-05-20T00:56:21;100771.50;;;15.32;100.00
58072;BME280;60383;46.626;18.866;2023-05-20T00:58:48;100760.09;;;15.27;100.00
58072;BME280;60383;46.626;18.866;2023-05-20T01:01:14;100763.59;;;15.21;100.00
58072;BME280;60383;46.626;18.866;2023-05-20T01:03:40;100763.81;;;15.11;100.00
58072;BME280;60383;46.626;18.866;2023-05-20T01:06:05;100763.88;;;15.03;100.00
58072;BME280;60383;46.626;18.866;2023-05-20T01:08:31;100762.81;;;15.04;100.00
58072;BME280;60383;46.626;18.866;2023-05-20T01:11:21;100759.75;;;14.91;100.00
58072;BME280;60383;46.626;18.866;2023-05-20T01:13:54;100764.13;;;14.77;100.00
58072;BME280;60383;46.626;18.866;2023-05-20T01:16:23;100766.50;;;14.88;100.00
58072;BME280;60383;46.626;18.866;2023-05-20T01:18:50;100763.19;;;14.93;100.00
58072;BME280;60383;46.626;18.866;2023-05-20T01:21:16;100762.69;;;14.89;100.00
58072;BME280;60383;46.626;18.866;2023-05-20T01:23:42;100766.50;;;14.88;100.00
58072;BME280;60383;46.626;18.866;2023-05-20T01:26:08;100763.72;;;14.88;100.00
58072;BME280;60383;46.626;18.866;2023-05-20T01:28:38;100774.41;;;14.91;100.00
58072;BME280;60383;46.626;18.866;2023-05-20T01:31:06;100767.69;;;14.94;100.00
58072;BME280;60383;46.626;18.866;2023-05-20T01:33:36;100768.53;;;14.94;100.00
58072;BME280;60383;46.626;18.866;2023-05-20T01:36:02;100771.50;;;14.76;100.00
58072;BME280;60383;46.626;18.866;2023-05-20T01:38:28;100768.94;;;14.75;100.00
58072;BME280;60383;46.626;18.866;2023-05-20T01:40:56;100775.16;;;14.77;100.00
58072;BME280;60383;46.626;18.866;2023-05-20T01:43:24;100776.19;;;14.76;100.00
58072;BME280;60383;46.626;18.866;2023-05-20T01:45:50;100773.94;;;14.71;100.00
58072;BME280;60383;46.626;18.866;2023-05-20T01:48:15;100775.84;;;14.71;100.00
58072;BME280;60383;46.626;18.866;2023-05-20T01:50:41;100776.19;;;14.59;100.00
58072;BME280;60383;46.626;18.866;2023-05-20T01:53:07;100773.28;;;14.52;100.00
58072;BME280;60383;46.626;18.866;2023-05-20T01:55:34;100777.44;;;14.48;100.00
58072;BME280;60383;46.626;18.866;2023-05-20T01:58:00;100783.09;;;14.55;100.00
58072;BME280;60383;46.626;18.866;2023-05-20T02:00:25;100778.59;;;14.54;100.00
58072;BME280;60383;46.626;18.866;2023-05-20T02:02:51;100778.09;;;14.59;100.00
58072;BME280;60383;46.626;18.866;2023-05-20T02:05:16;100775.31;;;14.59;100.00
58072;BME280;60383;46.626;18.866;2023-05-20T02:07:42;100778.09;;;14.59;100.00
58072;BME280;60383;46.626;18.866;2023-05-20T02:10:08;100778.41;;;14.56;100.00
58072;BME280;60383;46.626;18.866;2023-05-20T02:12:33;100777.75;;;14.53;100.00
58072;BME280;60383;46.626;18.866;2023-05-20T02:14:59;100781.56;;;14.36;100.00
58072;BME280;60383;46.626;18.866;2023-05-20T02:17:24;100775.53;;;14.41;100.00
58072;BME280;60383;46.626;18.866;2023-05-20T02:19:50;100775.38;;;14.34;100.00
58072;BME280;60383;46.626;18.866;2023-05-20T02:22:17;100778.97;;;14.34;100.00
58072;BME280;60383;46.626;18.866;2023-05-20T02:24:42;100775.53;;;14.32;100.00
58072;BME280;60383;46.626;18.866;2023-05-20T02:27:08;100779.16;;;14.33;100.00
58072;BME280;60383;46.626;18.866;2023-05-20T02:29:33;100779.16;;;14.33;100.00
58072;BME280;60383;46.626;18.866;2023-05-20T02:31:59;100770.91;;;14.33;100.00
58072;BME280;60383;46.626;18.866;2023-05-20T02:34:26;100774.69;;;14.24;100.00
58072;BME280;60383;46.626;18.866;2023-05-20T02:36:51;100770.06;;;14.24;100.00
58072;BME280;60383;46.626;18.866;2023-05-20T02:39:17;100769.16;;;14.24;100.00
58072;BME280;60383;46.626;18.866;2023-05-20T02:41:43;100759.19;;;14.14;100.00
58072;BME280;60383;46.626;18.866;2023-05-20T02:44:08;100762.13;;;14.13;100.00
58072;BME280;60383;46.626;18.866;2023-05-20T02:46:34;100772.09;;;14.22;100.00
58072;BME280;60383;46.626;18.866;2023-05-20T02:48:59;100768.84;;;14.27;100.00
58072;BME280;60383;46.626;18.866;2023-05-20T02:51:25;100759.00;;;14.32;100.00
58072;BME280;60383;46.626;18.866;2023-05-20T02:53:50;100754.19;;;14.34;100.00
58072;BME280;60383;46.626;18.866;2023-05-20T02:56:16;100760.72;;;14.42;100.00
58072;BME280;60383;46.626;18.866;2023-05-20T02:58:45;100755.03;;;14.43;100.00
58072;BME280;60383;46.626;18.866;2023-05-20T03:01:11;100759.69;;;14.43;100.00
58072;BME280;60383;46.626;18.866;2023-05-20T03:03:36;100751.75;;;14.31;100.00
58072;BME280;60383;46.626;18.866;2023-05-20T03:06:02;100748.34;;;14.37;100.00
58072;BME280;60383;46.626;18.866;2023-05-20T03:08:27;100745.41;;;14.39;100.00
58072;BME280;60383;46.626;18.866;2023-05-20T03:10:53;100750.72;;;14.41;100.00
58072;BME280;60383;46.626;18.866;2023-05-20T03:13:19;100748.81;;;14.49;100.00
58072;BME280;60383;46.626;18.866;2023-05-20T03:15:45;100753.97;;;14.52;100.00
58072;BME280;60383;46.626;18.866;2023-05-20T03:18:10;100751.56;;;14.49;100.00
58072;BME280;60383;46.626;18.866;2023-05-20T03:20:38;100760.72;;;14.50;100.00
58072;BME280;60383;46.626;18.866;2023-05-20T03:23:05;100756.03;;;14.50;100.00
58072;BME280;60383;46.626;18.866;2023-05-20T03:25:30;100751.25;;;14.44;100.00
58072;BME280;60383;46.626;18.866;2023-05-20T03:27:56;100748.97;;;14.56;100.00
58072;BME280;60383;46.626;18.866;2023-05-20T03:30:25;100750.84;;;14.64;100.00
58072;BME280;60383;46.626;18.866;2023-05-20T03:32:51;100737.78;;;14.66;100.00
58072;BME280;60383;46.626;18.866;2023-05-20T03:35:16;100739.50;;;14.67;100.00
58072;BME280;60383;46.626;18.866;2023-05-20T03:37:42;100741.75;;;14.72;100.00
58072;BME280;60383;46.626;18.866;2023-05-20T03:40:08;100741.34;;;14.83;100.00
58072;BME280;60383;46.626;18.866;2023-05-20T03:42:37;100740.44;;;14.99;100.00
58072;BME280;60383;46.626;18.866;2023-05-20T03:45:03;100748.28;;;15.10;100.00
58072;BME280;60383;46.626;18.866;2023-05-20T03:47:29;100747.44;;;15.10;100.00
58072;BME280;60383;46.626;18.866;2023-05-20T03:49:54;100734.25;;;15.28;100.00
58072;BME280;60383;46.626;18.866;2023-05-20T03:52:20;100741.34;;;15.23;100.00
58072;BME280;60383;46.626;18.866;2023-05-20T03:54:46;100747.16;;;15.36;100.00
58072;BME280;60383;46.626;18.866;2023-05-20T03:57:11;100755.03;;;15.39;100.00
58072;BME280;60383;46.626;18.866;2023-05-20T03:59:37;100766.44;;;15.44;100.00
58072;BME280;60383;46.626;18.866;2023-05-20T04:02:04;100768.81;;;15.47;100.00
58072;BME280;60383;46.626;18.866;2023-05-20T04:04:30;100760.91;;;15.44;100.00
58072;BME280;60383;46.626;18.866;2023-05-20T04:06:55;100777.13;;;15.39;100.00
58072;BME280;60383;46.626;18.866;2023-05-20T04:09:21;100786.16;;;15.56;100.00
58072;BME280;60383;46.626;18.866;2023-05-20T04:11:48;100784.16;;;15.73;100.00
58072;BME280;60383;46.626;18.866;2023-05-20T04:14:13;100792.63;;;15.72;100.00
58072;BME280;60383;46.626;18.866;2023-05-20T04:16:39;100785.94;;;15.66;100.00
58072;BME280;60383;46.626;18.866;2023-05-20T04:19:05;100793.88;;;15.69;100.00
58072;BME280;60383;46.626;18.866;2023-05-20T04:21:31;100795.94;;;15.67;100.00
58072;BME280;60383;46.626;18.866;2023-05-20T04:23:57;100797.84;;;15.67;100.00
58072;BME280;60383;46.626;18.866;2023-05-20T04:26:22;100804.53;;;15.72;100.00
58072;BME280;60383;46.626;18.866;2023-05-20T04:28:48;100809.31;;;15.87;100.00
58072;BME280;60383;46.626;18.866;2023-05-20T04:31:13;100811.16;;;15.94;100.00
58072;BME280;60383;46.626;18.866;2023-05-20T04:33:39;100818.09;;;15.90;100.00
58072;BME280;60383;46.626;18.866;2023-05-20T04:36:11;100817.00;;;16.00;100.00
58072;BME280;60383;46.626;18.866;2023-05-20T04:38:40;100828.28;;;15.90;100.00
58072;BME280;60383;46.626;18.866;2023-05-20T04:41:06;100822.56;;;15.91;100.00
58072;BME280;60383;46.626;18.866;2023-05-20T04:43:32;100823.81;;;15.89;100.00
58072;BME280;60383;46.626;18.866;2023-05-20T04:45:58;100821.09;;;16.04;100.00
58072;BME280;60383;46.626;18.866;2023-05-20T04:48:25;100818.91;;;16.22;100.00
58072;BME280;60383;46.626;18.866;2023-05-20T04:50:51;100810.78;;;16.21;100.00
58072;BME280;60383;46.626;18.866;2023-05-20T04:53:18;100814.84;;;16.33;100.00
58072;BME280;60383;46.626;18.866;2023-05-20T04:55:44;100817.00;;;16.23;100.00
58072;BME280;60383;46.626;18.866;2023-05-20T04:58:10;100823.31;;;16.32;100.00
58072;BME280;60383;46.626;18.866;2023-05-20T05:00:45;100821.56;;;16.31;100.00
58072;BME280;60383;46.626;18.866;2023-05-20T05:03:11;100823.50;;;16.30;100.00
58072;BME280;60383;46.626;18.866;2023-05-20T05:05:39;100823.25;;;16.55;100.00
58072;BME280;60383;46.626;18.866;2023-05-20T05:08:05;100826.91;;;16.55;98.93
58072;BME280;60383;46.626;18.866;2023-05-20T05:10:31;100823.59;;;16.75;97.32
58072;BME280;60383;46.626;18.866;2023-05-20T05:12:57;100826.56;;;16.73;97.84
58072;BME280;60383;46.626;18.866;2023-05-20T05:15:23;100818.56;;;16.79;97.52
58072;BME280;60383;46.626;18.866;2023-05-20T05:17:49;100817.03;;;16.91;97.30
58072;BME280;60383;46.626;18.866;2023-05-20T05:20:16;100825.75;;;17.03;96.43
58072;BME280;60383;46.626;18.866;2023-05-20T05:22:42;100814.97;;;17.08;96.84
58072;BME280;60383;46.626;18.866;2023-05-20T05:25:08;100819.53;;;17.01;97.02
58072;BME280;60383;46.626;18.866;2023-05-20T05:27:34;100821.38;;;17.08;96.06
58072;BME280;60383;46.626;18.866;2023-05-20T05:30:01;100806.00;;;17.21;95.85
58072;BME280;60383;46.626;18.866;2023-05-20T05:32:26;100810.56;;;17.29;96.44
58072;BME280;60383;46.626;18.866;2023-05-20T05:34:52;100812.66;;;17.42;96.07
58072;BME280;60383;46.626;18.866;2023-05-20T05:37:18;100823.72;;;17.27;96.14
58072;BME280;60383;46.626;18.866;2023-05-20T05:39:43;100815.53;;;17.33;95.79
58072;BME280;60383;46.626;18.866;2023-05-20T05:42:08;100812.47;;;17.43;95.72
58072;BME280;60383;46.626;18.866;2023-05-20T05:44:34;100819.53;;;17.31;95.44
58072;BME280;60383;46.626;18.866;2023-05-20T05:46:59;100823.53;;;17.43;95.75
58072;BME280;60383;46.626;18.866;2023-05-20T05:49:25;100824.47;;;17.50;95.45
58072;BME280;60383;46.626;18.866;2023-05-20T05:51:51;100824.38;;;17.44;95.60
58072;BME280;60383;46.626;18.866;2023-05-20T05:54:16;100819.78;;;17.66;94.94
58072;BME280;60383;46.626;18.866;2023-05-20T05:56:42;100824.31;;;17.73;95.41
58072;BME280;60383;46.626;18.866;2023-05-20T05:59:07;100821.78;;;17.94;94.48
58072;BME280;60383;46.626;18.866;2023-05-20T06:01:33;100823.84;;;17.70;95.72
58072;BME280;60383;46.626;18.866;2023-05-20T06:03:59;100827.91;;;17.89;95.32
58072;BME280;60383;46.626;18.866;2023-05-20T06:06:25;100811.56;;;17.94;94.66
58072;BME280;60383;46.626;18.866;2023-05-20T06:08:50;100812.34;;;17.88;95.16
58072;BME280;60383;46.626;18.866;2023-05-20T06:11:16;100813.56;;;18.22;95.71
58072;BME280;60383;46.626;18.866;2023-05-20T06:13:41;100814.50;;;18.29;94.92
58072;BME280;60383;46.626;18.866;2023-05-20T06:16:07;100810.69;;;18.59;92.40
58072;BME280;60383;46.626;18.866;2023-05-20T06:18:32;100817.94;;;18.60;92.79
58072;BME280;60383;46.626;18.866;2023-05-20T06:20:58;100822.09;;;18.71;92.39
58072;BME280;60383;46.626;18.866;2023-05-20T06:23:24;100821.38;;;18.90;92.48
58072;BME280;60383;46.626;18.866;2023-05-20T06:25:50;100817.19;;;18.94;91.48
58072;BME280;60383;46.626;18.866;2023-05-20T06:28:16;100819.75;;;18.96;90.06
58072;BME280;60383;46.626;18.866;2023-05-20T06:30:42;100811.72;;;19.08;91.00
58072;BME280;60383;46.626;18.866;2023-05-20T06:33:07;100809.50;;;18.96;89.93
58072;BME280;60383;46.626;18.866;2023-05-20T06:35:33;100816.59;;;19.06;89.04
58072;BME280;60383;46.626;18.866;2023-05-20T06:38:01;100828.19;;;18.88;90.70
58072;BME280;60383;46.626;18.866;2023-05-20T06:40:27;100811.53;;;19.16;89.13
58072;BME280;60383;46.626;18.866;2023-05-20T06:42:53;100819.28;;;19.27;88.01
58072;BME280;60383;46.626;18.866;2023-05-20T06:45:18;100807.91;;;19.22;88.94
58072;BME280;60383;46.626;18.866;2023-05-20T06:47:44;100802.81;;;19.26;88.44
58072;BME280;60383;46.626;18.866;2023-05-20T06:50:10;100800.59;;;19.50;87.88
58072;BME280;60383;46.626;18.866;2023-05-20T06:52:36;100802.13;;;19.59;86.38
58072;BME280;60383;46.626;18.866;2023-05-20T06:55:03;100807.06;;;19.70;86.69
58072;BME280;60383;46.626;18.866;2023-05-20T06:57:28;100806.00;;;19.71;84.90
58072;BME280;60383;46.626;18.866;2023-05-20T06:59:54;100801.56;;;19.77;86.52
58072;BME280;60383;46.626;18.866;2023-05-20T07:02:20;100799.41;;;19.79;85.60
58072;BME280;60383;46.626;18.866;2023-05-20T07:04:46;100796.63;;;19.72;84.80
58072;BME280;60383;46.626;18.866;2023-05-20T07:07:11;100793.72;;;19.94;83.82
58072;BME280;60383;46.626;18.866;2023-05-20T07:09:37;100788.38;;;19.99;84.10
58072;BME280;60383;46.626;18.866;2023-05-20T07:12:02;100796.72;;;20.19;84.44
58072;BME280;60383;46.626;18.866;2023-05-20T07:14:28;100788.19;;;20.34;82.09
58072;BME280;60383;46.626;18.866;2023-05-20T07:16:53;100799.72;;;20.18;82.56
58072;BME280;60383;46.626;18.866;2023-05-20T07:19:19;100798.19;;;20.02;82.46
58072;BME280;60383;46.626;18.866;2023-05-20T07:21:44;100799.03;;;20.02;83.76
58072;BME280;60383;46.626;18.866;2023-05-20T07:24:10;100797.41;;;20.28;82.85
58072;BME280;60383;46.626;18.866;2023-05-20T07:26:35;100792.25;;;20.38;81.30
58072;BME280;60383;46.626;18.866;2023-05-20T07:29:02;100788.16;;;20.54;81.23
58072;BME280;60383;46.626;18.866;2023-05-20T07:31:28;100798.88;;;20.37;80.13
58072;BME280;60383;46.626;18.866;2023-05-20T07:33:54;100793.28;;;20.64;78.73
58072;BME280;60383;46.626;18.866;2023-05-20T07:36:20;100790.34;;;20.72;79.42
58072;BME280;60383;46.626;18.866;2023-05-20T07:38:45;100784.75;;;20.86;80.60
58072;BME280;60383;46.626;18.866;2023-05-20T07:41:11;100784.94;;;20.98;78.71
58072;BME280;60383;46.626;18.866;2023-05-20T07:43:36;100777.88;;;20.95;77.66
58072;BME280;60383;46.626;18.866;2023-05-20T07:46:02;100772.28;;;21.09;78.04
58072;BME280;60383;46.626;18.866;2023-05-20T07:48:28;100776.13;;;21.14;78.90
58072;BME280;60383;46.626;18.866;2023-05-20T07:50:54;100773.06;;;21.22;77.87
58072;BME280;60383;46.626;18.866;2023-05-20T07:53:23;100780.41;;;21.10;77.40
58072;BME280;60383;46.626;18.866;2023-05-20T07:55:49;100781.09;;;20.99;77.37
58072;BME280;60383;46.626;18.866;2023-05-20T07:58:14;100779.13;;;21.06;76.41
58072;BME280;60383;46.626;18.866;2023-05-20T08:00:40;100781.69;;;21.08;75.42
58072;BME280;60383;46.626;18.866;2023-05-20T08:03:05;100790.69;;;21.10;75.64
58072;BME280;60383;46.626;18.866;2023-05-20T08:05:32;100784.22;;;21.22;74.18
58072;BME280;60383;46.626;18.866;2023-05-20T08:07:57;100777.97;;;21.27;74.00
58072;BME280;60383;46.626;18.866;2023-05-20T08:10:23;100776.91;;;21.28;73.40
58072;BME280;60383;46.626;18.866;2023-05-20T08:12:48;100764.88;;;21.34;73.48
58072;BME280;60383;46.626;18.866;2023-05-20T08:15:14;100771.03;;;21.50;71.56
58072;BME280;60383;46.626;18.866;2023-05-20T08:17:39;100766.78;;;21.41;72.22
58072;BME280;60383;46.626;18.866;2023-05-20T08:20:05;100762.56;;;21.31;73.67
58072;BME280;60383;46.626;18.866;2023-05-20T08:22:32;100752.63;;;21.42;73.04
58072;BME280;60383;46.626;18.866;2023-05-20T08:24:58;100764.88;;;21.34;72.98
58072;BME280;60383;46.626;18.866;2023-05-20T08:27:23;100763.56;;;21.44;74.12
58072;BME280;60383;46.626;18.866;2023-05-20T08:29:49;100746.81;;;21.57;74.84
58072;BME280;60383;46.626;18.866;2023-05-20T08:32:14;100745.25;;;21.68;74.36
58072;BME280;60383;46.626;18.866;2023-05-20T08:34:40;100743.09;;;21.70;71.52
58072;BME280;60383;46.626;18.866;2023-05-20T08:37:06;100740.91;;;21.79;70.44
58072;BME280;60383;46.626;18.866;2023-05-20T08:39:32;100741.00;;;21.65;69.47
58072;BME280;60383;46.626;18.866;2023-05-20T08:41:57;100743.88;;;21.84;70.48
58072;BME280;60383;46.626;18.866;2023-05-20T08:44:24;100738.03;;;21.92;69.08
58072;BME280;60383;46.626;18.866;2023-05-20T08:46:50;100745.00;;;22.01;68.22
58072;BME280;60383;46.626;18.866;2023-05-20T08:49:16;100747.63;;;21.96;68.26
58072;BME280;60383;46.626;18.866;2023-05-20T08:51:42;100740.41;;;22.14;69.51
58072;BME280;60383;46.626;18.866;2023-05-20T08:54:08;100745.69;;;22.29;67.32
58072;BME280;60383;46.626;18.866;2023-05-20T08:56:34;100738.09;;;22.36;67.30
58072;BME280;60383;46.626;18.866;2023-05-20T08:59:02;100737.22;;;22.36;67.02
58072;BME280;60383;46.626;18.866;2023-05-20T09:01:28;100737.47;;;22.41;66.68
58072;BME280;60383;46.626;18.866;2023-05-20T09:03:53;100735.81;;;22.52;65.95
58072;BME280;60383;46.626;18.866;2023-05-20T09:06:19;100737.63;;;22.64;63.76
58072;BME280;60383;46.626;18.866;2023-05-20T09:08:45;100728.34;;;22.71;64.86
58072;BME280;60383;46.626;18.866;2023-05-20T09:11:12;100725.25;;;22.79;63.62
58072;BME280;60383;46.626;18.866;2023-05-20T09:13:37;100729.56;;;22.56;62.44
58072;BME280;60383;46.626;18.866;2023-05-20T09:16:03;100726.09;;;22.61;63.56
58072;BME280;60383;46.626;18.866;2023-05-20T09:18:28;100718.44;;;22.75;64.13
58072;BME280;60383;46.626;18.866;2023-05-20T09:20:54;100716.44;;;22.82;63.34
58072;BME280;60383;46.626;18.866;2023-05-20T09:23:20;100715.72;;;22.87;60.90
58072;BME280;60383;46.626;18.866;2023-05-20T09:25:52;100702.47;;;23.01;62.16
58072;BME280;60383;46.626;18.866;2023-05-20T09:28:22;100710.91;;;23.12;62.53
58072;BME280;60383;46.626;18.866;2023-05-20T09:30:49;100708.56;;;23.09;59.83
58072;BME280;60383;46.626;18.866;2023-05-20T09:33:16;100715.16;;;23.15;59.19
58072;BME280;60383;46.626;18.866;2023-05-20T09:38:08;100704.25;;;23.32;61.02
58072;BME280;60383;46.626;18.866;2023-05-20T09:40:35;100695.28;;;23.42;62.73
58072;BME280;60383;46.626;18.866;2023-05-20T09:43:06;100708.13;;;23.61;62.38
58072;BME280;60383;46.626;18.866;2023-05-20T09:45:32;100695.84;;;23.63;61.94
58072;BME280;60383;46.626;18.866;2023-05-20T09:47:58;100692.94;;;23.57;60.67
58072;BME280;60383;46.626;18.866;2023-05-20T09:50:26;100689.78;;;23.66;60.72
58072;BME280;60383;46.626;18.866;2023-05-20T09:52:53;100687.63;;;23.80;57.87
58072;BME280;60383;46.626;18.866;2023-05-20T09:55:21;100687.72;;;23.73;57.47
58072;BME280;60383;46.626;18.866;2023-05-20T09:57:47;100687.88;;;23.78;57.04
58072;BME280;60383;46.626;18.866;2023-05-20T10:00:14;100685.09;;;23.90;57.03
58072;BME280;60383;46.626;18.866;2023-05-20T10:02:46;100686.44;;;23.87;56.37
58072;BME280;60383;46.626;18.866;2023-05-20T10:05:18;100686.25;;;24.01;53.67
58072;BME280;60383;46.626;18.866;2023-05-20T10:08:47;100678.00;;;24.06;54.81
58072;BME280;60383;46.626;18.866;2023-05-20T10:19:34;100672.88;;;24.03;56.88
58072;BME280;60383;46.626;18.866;2023-05-20T10:22:01;100671.28;;;24.07;56.02
58072;BME280;60383;46.626;18.866;2023-05-20T10:24:31;100671.53;;;24.05;56.74
58072;BME280;60383;46.626;18.866;2023-05-20T10:26:57;100676.16;;;23.69;56.53
58072;BME280;60383;46.626;18.866;2023-05-20T10:29:24;100672.19;;;23.77;55.71
58072;BME280;60383;46.626;18.866;2023-05-20T10:31:51;100671.16;;;24.02;56.02
58072;BME280;60383;46.626;18.866;2023-05-20T10:34:18;100678.97;;;24.23;54.66
58072;BME280;60383;46.626;18.866;2023-05-20T10:39:25;100666.19;;;24.63;54.26
58072;BME280;60383;46.626;18.866;2023-05-20T10:41:51;100657.69;;;24.46;53.71
58072;BME280;60383;46.626;18.866;2023-05-20T10:44:17;100670.31;;;24.72;53.11
58072;BME280;60383;46.626;18.866;2023-05-20T10:46:42;100666.91;;;24.82;53.67
58072;BME280;60383;46.626;18.866;2023-05-20T10:49:18;100666.03;;;24.94;53.45
58072;BME280;60383;46.626;18.866;2023-05-20T10:51:45;100663.63;;;24.62;53.60
58072;BME280;60383;46.626;18.866;2023-05-20T10:54:11;100664.00;;;24.77;53.11
58072;BME280;60383;46.626;18.866;2023-05-20T10:56:39;100666.06;;;24.82;52.53
58072;BME280;60383;46.626;18.866;2023-05-20T10:59:05;100657.84;;;25.04;53.45
58072;BME280;60383;46.626;18.866;2023-05-20T11:01:31;100653.53;;;25.13;52.39
58072;BME280;60383;46.626;18.866;2023-05-20T11:03:57;100652.47;;;25.02;53.02
58072;BME280;60383;46.626;18.866;2023-05-20T11:06:26;100655.75;;;25.11;53.16
58072;BME280;60383;46.626;18.866;2023-05-20T11:09:02;100655.03;;;25.04;52.55
58072;BME280;60383;46.626;18.866;2023-05-20T11:11:29;100652.63;;;25.25;51.05
58072;BME280;60383;46.626;18.866;2023-05-20T11:13:56;100652.81;;;25.18;51.94
58072;BME280;60383;46.626;18.866;2023-05-20T11:16:21;100643.41;;;24.83;52.26
58072;BME280;60383;46.626;18.866;2023-05-20T11:18:48;100642.72;;;25.05;52.71
58072;BME280;60383;46.626;18.866;2023-05-20T11:21:14;100647.19;;;25.18;50.83
58072;BME280;60383;46.626;18.866;2023-05-20T11:23:40;100643.41;;;25.24;50.79
58072;BME280;60383;46.626;18.866;2023-05-20T11:26:06;100634.59;;;25.32;51.41
58072;BME280;60383;46.626;18.866;2023-05-20T11:28:34;100629.09;;;25.38;49.71
58072;BME280;60383;46.626;18.866;2023-05-20T11:31:00;100624.34;;;25.38;49.73
58072;BME280;60383;46.626;18.866;2023-05-20T11:33:25;100619.69;;;25.44;51.17
58072;BME280;60383;46.626;18.866;2023-05-20T11:35:54;100637.75;;;25.36;47.88
58072;BME280;60383;46.626;18.866;2023-05-20T11:38:20;100625.97;;;25.22;48.82
58072;BME280;60383;46.626;18.866;2023-05-20T11:40:49;100623.59;;;25.43;49.94
58072;BME280;60383;46.626;18.866;2023-05-20T11:43:15;100613.31;;;25.48;49.46
58072;BME280;60383;46.626;18.866;2023-05-20T11:45:42;100611.13;;;25.22;48.39
58072;BME280;60383;46.626;18.866;2023-05-20T11:48:09;100614.50;;;25.52;47.27
58072;BME280;60383;46.626;18.866;2023-05-20T11:50:40;100618.34;;;25.34;46.93
58072;BME280;60383;46.626;18.866;2023-05-20T11:53:10;100624.72;;;25.59;43.65
58072;BME280;60383;46.626;18.866;2023-05-20T11:55:47;100615.94;;;25.38;43.45
58072;BME280;60383;46.626;18.866;2023-05-20T11:58:21;100614.16;;;25.49;44.64
58072;BME280;60383;46.626;18.866;2023-05-20T12:00:47;100615.63;;;25.68;44.22
58072;BME280;60383;46.626;18.866;2023-05-20T12:03:13;100610.69;;;25.76;45.80
58072;BME280;60383;46.626;18.866;2023-05-20T12:05:39;100612.66;;;25.58;44.28
58072;BME280;60383;46.626;18.866;2023-05-20T12:08:05;100608.84;;;25.64;43.98
58072;BME280;60383;46.626;18.866;2023-05-20T12:10:31;100613.50;;;25.76;45.13
58072;BME280;60383;46.626;18.866;2023-05-20T12:12:57;100613.91;;;25.50;44.00
58072;BME280;60383;46.626;18.866;2023-05-20T12:15:23;100598.03;;;25.27;43.64
58072;BME280;60383;46.626;18.866;2023-05-20T12:17:51;100599.72;;;25.40;44.08
58072;BME280;60383;46.626;18.866;2023-05-20T12:20:20;100605.25;;;25.52;45.28
58072;BME280;60383;46.626;18.866;2023-05-20T12:22:46;100598.03;;;25.90;44.93
58072;BME280;60383;46.626;18.866;2023-05-20T12:25:12;100586.41;;;25.81;43.53
58072;BME280;60383;46.626;18.866;2023-05-20T12:27:40;100598.03;;;25.56;42.21
58072;BME280;60383;46.626;18.866;2023-05-20T12:30:07;100589.13;;;25.76;43.88
58072;BME280;60383;46.626;18.866;2023-05-20T12:32:37;100585.31;;;25.82;43.35
58072;BME280;60383;46.626;18.866;2023-05-20T12:35:03;100579.63;;;26.11;42.73
58072;BME280;60383;46.626;18.866;2023-05-20T12:37:29;100577.38;;;26.13;42.99
58072;BME280;60383;46.626;18.866;2023-05-20T12:39:54;100585.09;;;26.06;42.94
58072;BME280;60383;46.626;18.866;2023-05-20T12:42:20;100575.00;;;25.88;41.07
58072;BME280;60383;46.626;18.866;2023-05-20T12:44:45;100576.56;;;25.79;41.21